LSZH/ZRH METAR and TAF weather

Enter ICAO airport designator
Station Type Date Time Source
LSZH METAR 2020/04/07 07:50 UTC NOAA

LSZH 070750Z VRB02KT CAVOK 10/04 Q1029 NOSIG


Station Type Date Time Source
LSZH Decoded METAR 2020/04/07 07:50 UTC NOAA

Zurich-Kloten, Switzerland (LSZH) 47-29N 008-32E 432M
Apr 07, 2020 - 03:50 AM EDT / 2020.04.07 0750 UTC
Wind: Variable at 2 MPH (2 KT):0
Visibility: greater than 7 mile(s):0
Temperature: 50 F (10 C)
Dew Point: 39 F (4 C)
Relative Humidity: 66%
Pressure (altimeter): 30.39 in. Hg (1029 hPa)
ob: LSZH 070750Z VRB02KT CAVOK 10/04 Q1029 NOSIG
cycle: 8

Station Type Date Time Source
LSZH TAF 2020/04/07 06:33 UTC NOAA

TAF LSZH 070525Z 0706/0812 VRB02KT CAVOK TX23/0714Z TN03/0706Z TN03/0805Z
BECMG 0709/0712 05010KT
BECMG 0716/0719 VRB03KT

Example: see airport list